createdAt,value
2023-02-03T00:01:17.241Z,7.8
2023-02-03T00:20:36.615Z,7.8
2023-02-03T00:39:53.494Z,7.8
2023-02-03T00:59:10.742Z,7.8
2023-02-03T01:18:27.833Z,7.8
2023-02-03T01:37:46.165Z,7.9
2023-02-03T01:57:01.806Z,7.9
2023-02-03T02:16:19.591Z,8
2023-02-03T02:35:36.123Z,7.9
2023-02-03T02:54:53.980Z,8
2023-02-03T03:14:08.384Z,8
2023-02-03T03:33:22.885Z,8.1
2023-02-03T03:52:40.190Z,7.9
2023-02-03T04:11:57.646Z,7.9
2023-02-03T04:31:15.912Z,8
2023-02-03T04:50:29.942Z,8
2023-02-03T05:09:43.315Z,8
2023-02-03T05:29:01.059Z,8.1
2023-02-03T05:48:17.953Z,8.1
2023-02-03T06:07:34.662Z,8.1
2023-02-03T06:26:52.168Z,8
2023-02-03T06:46:08.965Z,8
2023-02-03T07:05:26.271Z,8.1
2023-02-03T07:24:41.862Z,8.1
2023-02-03T07:43:54.104Z,8.1
2023-02-03T08:03:12.602Z,8.1
2023-02-03T08:22:27.623Z,8
2023-02-03T08:41:43.300Z,7.8
2023-02-03T09:01:01.917Z,7.8
2023-02-03T09:20:19.284Z,7.8
2023-02-03T09:39:37.249Z,7.8
2023-02-03T09:58:54.467Z,7.9
2023-02-03T10:18:08.270Z,7.9
2023-02-03T10:37:25.443Z,7.9
2023-02-03T10:56:40.378Z,8
2023-02-03T11:15:56.550Z,8
2023-02-03T11:35:14.064Z,8
2023-02-03T11:54:31.549Z,8.1
2023-02-03T12:13:48.276Z,8.1
2023-02-03T12:33:06.979Z,8.3
2023-02-03T12:52:24.973Z,8.3
2023-02-03T13:11:42.264Z,8.3
2023-02-03T13:31:01.579Z,8.4
2023-02-03T13:50:18.872Z,8.4
2023-02-03T14:09:36.838Z,8.5
2023-02-03T14:28:54.709Z,8.6
2023-02-03T14:48:12.715Z,8.6
2023-02-03T15:07:30.565Z,8.6
2023-02-03T15:26:48.275Z,8.7
2023-02-03T15:46:03.462Z,8
2023-02-03T16:05:19.306Z,7.8
2023-02-03T16:24:34.584Z,7.7
2023-02-03T16:43:51.590Z,7.6
2023-02-03T17:03:07.996Z,7.7
2023-02-03T17:22:24.536Z,7.7
2023-02-03T18:01:02.129Z,7.7
2023-02-03T18:20:18.512Z,7.7
2023-02-03T18:39:37.752Z,7.5
2023-02-03T18:58:53.040Z,7.5
2023-02-03T19:18:08.689Z,7.3
2023-02-03T19:37:25.779Z,7.2
2023-02-03T19:56:41.931Z,7.1
2023-02-03T20:15:59.410Z,7.1
2023-02-03T20:35:16.246Z,7
2023-02-03T20:54:31.591Z,7.1
2023-02-03T21:13:49.012Z,7.1
2023-02-03T21:33:05.512Z,7
2023-02-03T21:52:22.040Z,6.9
2023-02-03T22:11:37.020Z,6.9
2023-02-03T22:30:55.255Z,6.7
2023-02-03T22:50:12.503Z,6.1
2023-02-03T23:09:29.524Z,6.5
2023-02-03T23:28:45.524Z,6.2
2023-02-03T23:48:02.397Z,6.2
